Bayard, Nebraska
Current Conditions -  °F | °C
As of 2:53 AM on Sunday 25 Jan 2015 (Local Time) from KBFF Reporting Station
Clear Clear  
Wind Chill: 25°   Ceiling: Unl
Heat Index: 37°   Visibility: 10mi
Dew Point: 27°   Wind: 25mph
Humidity: 67%   Direction: 310°NW
Pressure: 30.09"   Gusts: 32mph
Location:  41.75°N, 103.32°W
Report Text: KBFF 250953Z AUTO 31022G28KT 10SM CLR 03/M03 A3009 RMK AO2 PK WND 30028/0952 SLP194 T00281028 $
Loading
Personal Weather Stations






























Interactive Weather Map New forecast layout! Learn more

10-Day Weather Forecast

Advertisements
Track Severe Weather on mobile